Time;durP1;ratioP1;P1;durP2;ratioP2;P2;SDS_P1;SDS_P2;PMS_P1;PMS_P2;Temp;Humidity;BMP_temperature;BMP_pressure;BME280_temperature;BME280_humidity;BME280_pressure;Samples;Min_cycle;Max_cycle;Signal;HPM_P1;HPM_P2
2021/05/17 00:00:42;;;;;;;1.40;1.30;;;;;;;6.81;100.00;99422.91;5021799;28;20223;-71
2021/05/17 00:03:09;;;;;;;2.70;1.23;;;;;;;6.84;100.00;99425.38;5022810;28;20663;-72
2021/05/17 00:05:36;;;;;;;3.17;1.30;;;;;;;6.83;100.00;99423.69;5033484;28;20199;-72
2021/05/17 00:08:03;;;;;;;1.50;1.40;;;;;;;6.88;100.00;99427.00;5024999;28;20292;-71
2021/05/17 00:10:29;;;;;;;1.63;1.20;;;;;;;6.83;100.00;99426.28;5006386;28;20216;-72
2021/05/17 00:12:55;;;;;;;1.47;1.10;;;;;;;6.74;100.00;99418.81;5021766;28;20204;-72
2021/05/17 00:15:23;;;;;;;2.90;1.17;;;;;;;6.73;100.00;99428.28;5025731;28;20200;-72
2021/05/17 00:17:49;;;;;;;1.37;1.23;;;;;;;6.74;100.00;99424.81;5030376;28;20208;-71
2021/05/17 00:20:16;;;;;;;1.60;1.50;;;;;;;6.71;100.00;99424.91;5029127;28;20576;-71
2021/05/17 00:22:45;;;;;;;2.50;1.50;;;;;;;6.68;100.00;99424.16;5038071;28;20211;-71
2021/05/17 00:25:12;;;;;;;1.20;1.10;;;;;;;6.73;100.00;99419.69;5003672;28;20208;-71
2021/05/17 00:27:38;;;;;;;1.43;1.33;;;;;;;6.67;100.00;99412.09;5028969;28;21110;-72
2021/05/17 00:30:05;;;;;;;1.50;1.40;;;;;;;6.66;100.00;99411.25;5028651;28;20219;-71
2021/05/17 00:32:32;;;;;;;1.50;1.40;;;;;;;6.73;100.00;99406.72;5026142;28;20196;-72
2021/05/17 00:34:59;;;;;;;2.50;1.30;;;;;;;6.78;100.00;99410.88;5029482;28;20670;-71
2021/05/17 00:37:25;;;;;;;2.00;1.50;;;;;;;6.72;100.00;99399.84;5027385;28;20200;-71
2021/05/17 00:39:53;;;;;;;2.63;1.27;;;;;;;6.65;100.00;99399.19;5027050;28;20207;-71
2021/05/17 00:42:19;;;;;;;1.30;1.20;;;;;;;6.57;100.00;99404.59;5031782;28;20318;-71
2021/05/17 00:44:45;;;;;;;1.60;1.20;;;;;;;6.67;100.00;99405.19;5013536;28;20219;-72
2021/05/17 00:47:14;;;;;;;1.20;1.10;;;;;;;6.56;100.00;99408.09;5006673;28;20224;-72
2021/05/17 00:49:40;;;;;;;2.13;1.43;;;;;;;6.59;100.00;99410.56;5011957;28;20215;-72
2021/05/17 00:52:08;;;;;;;1.30;1.20;;;;;;;6.52;100.00;99411.63;5027584;28;20195;-71
2021/05/17 00:54:35;;;;;;;1.03;1.03;;;;;;;6.44;100.00;99411.03;5018542;28;20211;-71
2021/05/17 00:57:02;;;;;;;2.97;1.30;;;;;;;6.37;100.00;99418.13;5031509;28;20204;-72
2021/05/17 00:59:28;;;;;;;1.23;1.13;;;;;;;6.39;100.00;99415.47;5007484;28;20284;-72
2021/05/17 01:01:55;;;;;;;1.73;1.63;;;;;;;6.40;100.00;99420.63;5005653;28;20231;-73
2021/05/17 01:04:32;;;;;;;1.30;1.20;;;;;;;6.39;100.00;99416.31;5008052;28;20203;-72
2021/05/17 01:06:59;;;;;;;1.43;1.30;;;;;;;6.39;100.00;99418.06;5022743;28;20213;-71
2021/05/17 01:09:26;;;;;;;1.60;1.50;;;;;;;6.36;100.00;99421.56;5026416;28;20224;-71
2021/05/17 01:11:56;;;;;;;1.30;1.20;;;;;;;6.29;100.00;99419.22;5031726;28;20598;-72
2021/05/17 01:14:25;;;;;;;4.53;1.53;;;;;;;6.41;100.00;99419.72;5021627;28;20283;-73
2021/05/17 01:16:54;;;;;;;1.53;1.40;;;;;;;6.50;100.00;99413.44;5012801;28;20200;-73
2021/05/17 01:19:32;;;;;;;1.30;1.20;;;;;;;6.34;100.00;99419.94;5010499;28;20262;-72
2021/05/17 01:22:08;;;;;;;1.77;1.40;;;;;;;6.31;100.00;99420.84;5023824;28;20222;-72
2021/05/17 01:24:36;;;;;;;1.47;1.33;;;;;;;6.34;100.00;99417.34;5030161;28;20196;-71
2021/05/17 01:27:03;;;;;;;1.90;1.70;;;;;;;6.33;100.00;99421.69;5023805;28;20215;-72
2021/05/17 01:29:30;;;;;;;1.50;1.40;;;;;;;6.39;100.00;99420.66;5013524;28;20599;-71
2021/05/17 01:31:59;;;;;;;1.43;1.33;;;;;;;6.37;100.00;99420.69;5018572;28;20245;-72
2021/05/17 01:34:26;;;;;;;1.70;1.50;;;;;;;6.38;100.00;99419.78;5010980;28;20209;-71
2021/05/17 01:36:53;;;;;;;1.70;1.50;;;;;;;6.38;100.00;99422.38;5006991;28;20199;-72
2021/05/17 01:39:23;;;;;;;3.03;1.40;;;;;;;6.31;100.00;99420.03;5019793;28;20201;-72
2021/05/17 01:41:51;;;;;;;1.30;1.20;;;;;;;6.30;100.00;99411.41;5009081;28;20221;-71
2021/05/17 01:44:23;;;;;;;2.17;1.50;;;;;;;6.26;100.00;99420.13;5013184;28;20196;-73
2021/05/17 01:46:50;;;;;;;1.50;1.40;;;;;;;6.23;100.00;99420.25;5004280;28;20201;-71
2021/05/17 01:49:17;;;;;;;3.80;1.40;;;;;;;6.29;100.00;99414.03;5021024;28;20193;-71
2021/05/17 01:51:45;;;;;;;1.40;1.30;;;;;;;6.33;100.00;99416.50;5012068;28;20223;-72
2021/05/17 01:54:12;;;;;;;1.63;1.40;;;;;;;6.24;100.00;99417.63;5012925;28;20222;-71
2021/05/17 01:56:40;;;;;;;1.37;1.27;;;;;;;6.24;100.00;99420.19;5032813;28;20199;-72
2021/05/17 01:59:28;;;;;;;1.80;1.57;;;;;;;6.27;100.00;99418.41;5030993;28;20196;-71
2021/05/17 02:01:55;;;;;;;2.37;1.80;;;;;;;6.20;100.00;99421.16;5027973;28;20213;-72
2021/05/17 02:04:21;;;;;;;1.83;1.40;;;;;;;6.29;100.00;99427.81;5007899;28;20200;-71
2021/05/17 02:06:47;;;;;;;1.93;1.50;;;;;;;6.34;100.00;99433.72;5031165;28;20240;-72
2021/05/17 02:09:16;;;;;;;2.10;1.83;;;;;;;6.20;100.00;99444.44;5021591;28;20593;-71
2021/05/17 02:11:42;;;;;;;2.17;1.73;;;;;;;6.13;100.00;99432.56;5010144;28;20572;-71
2021/05/17 02:14:22;;;;;;;2.27;1.63;;;;;;;6.20;100.00;99441.03;5011431;28;20277;-73
2021/05/17 02:16:51;;;;;;;1.53;1.40;;;;;;;6.17;100.00;99441.09;5024915;28;20660;-73
2021/05/17 02:19:21;;;;;;;1.70;1.60;;;;;;;6.17;100.00;99441.09;5025908;28;20193;-73
2021/05/17 02:21:47;;;;;;;1.87;1.57;;;;;;;6.16;100.00;99440.25;5003010;28;20271;-73
2021/05/17 02:24:15;;;;;;;2.83;1.53;;;;;;;6.13;100.00;99437.75;5005474;28;20196;-73
2021/05/17 02:26:41;;;;;;;1.90;1.60;;;;;;;6.06;100.00;99446.56;5031545;28;20217;-73
2021/05/17 02:29:08;;;;;;;2.10;1.53;;;;;;;6.02;100.00;99448.38;5004835;28;20607;-73
2021/05/17 02:31:35;;;;;;;1.70;1.60;;;;;;;6.09;100.00;99450.81;5026541;28;20266;-73
2021/05/17 02:34:03;;;;;;;3.17;1.70;;;;;;;6.18;100.00;99446.25;5018764;28;20264;-73
2021/05/17 02:36:30;;;;;;;2.53;1.60;;;;;;;6.19;100.00;99449.66;5019356;28;20224;-73
2021/05/17 02:38:57;;;;;;;1.67;1.57;;;;;;;6.09;100.00;99450.81;5022977;28;20225;-74
2021/05/17 02:41:26;;;;;;;3.73;1.60;;;;;;;6.15;100.00;99445.47;5023831;28;20262;-74
2021/05/17 02:43:55;;;;;;;3.37;1.57;;;;;;;6.07;100.00;99450.88;5007537;28;20204;-73
2021/05/17 02:46:22;;;;;;;1.50;1.27;;;;;;;6.08;100.00;99457.72;5031189;28;20200;-74
2021/05/17 02:48:53;;;;;;;2.60;1.37;;;;;;;6.06;100.00;99452.59;5009270;28;20231;-73
2021/05/17 02:51:20;;;;;;;2.00;1.20;;;;;;;5.95;100.00;99457.16;5040489;28;20227;-74
2021/05/17 02:54:19;;;;;;;1.47;1.30;;;;;;;5.98;100.00;99459.72;5019535;28;20196;-73
2021/05/17 02:57:07;;;;;;;1.50;1.40;;;;;;;5.90;100.00;99461.59;5020216;28;20207;-73
2021/05/17 03:00:10;;;;;;;2.30;1.70;;;;;;;5.96;100.00;99465.81;5010325;28;20197;-74
2021/05/17 03:03:01;;;;;;;1.63;1.53;;;;;;;6.03;100.00;99472.50;4982572;28;20211;-73
2021/05/17 03:05:34;;;;;;;1.67;1.57;;;;;;;6.07;100.00;99477.59;4998342;28;20325;-74
2021/05/17 03:08:05;;;;;;;3.03;1.87;;;;;;;6.16;100.00;99470.47;5012179;28;20825;-74
2021/05/17 03:10:33;;;;;;;2.13;1.93;;;;;;;6.23;100.00;99477.19;5031123;28;20294;-74
2021/05/17 03:13:04;;;;;;;1.60;1.50;;;;;;;6.24;100.00;99489.22;5021279;28;20195;-74
2021/05/17 03:15:31;;;;;;;2.00;1.80;;;;;;;6.30;100.00;99489.06;4991565;28;20291;-76
2021/05/17 03:17:57;;;;;;;1.67;1.57;;;;;;;6.38;100.00;99479.34;5008443;28;20187;-73
2021/05/17 03:20:25;;;;;;;2.60;1.63;;;;;;;6.43;100.00;99474.06;5007657;28;20220;-73
2021/05/17 03:22:52;;;;;;;2.27;2.03;;;;;;;6.51;100.00;99482.47;5024869;28;20206;-74
2021/05/17 03:25:23;;;;;;;2.70;1.50;;;;;;;6.62;100.00;99488.19;5029167;28;20200;-74
2021/05/17 03:27:49;;;;;;;2.30;1.90;;;;;;;6.68;100.00;99502.69;5008252;28;20196;-75
2021/05/17 03:30:17;;;;;;;1.60;1.47;;;;;;;6.69;100.00;99498.38;5035644;28;21320;-75
2021/05/17 03:32:43;;;;;;;2.97;1.57;;;;;;;6.74;100.00;99505.13;5024412;28;20274;-75
2021/05/17 03:35:09;;;;;;;3.57;1.90;;;;;;;6.77;100.00;99514.53;5024292;28;20634;-73
2021/05/17 03:37:35;;;;;;;3.00;2.10;;;;;;;6.83;100.00;99512.63;5022152;28;20589;-73
2021/05/17 03:40:02;;;;;;;3.10;1.47;;;;;;;6.93;100.00;99522.72;5011374;28;20230;-73
2021/05/17 03:42:29;;;;;;;2.80;1.90;;;;;;;6.97;100.00;99508.81;5008930;28;20304;-71
2021/05/17 03:44:55;;;;;;;3.90;1.70;;;;;;;7.06;100.00;99511.13;4997512;28;20208;-73
2021/05/17 03:47:21;;;;;;;1.77;1.60;;;;;;;7.20;100.00;99505.53;5024452;28;20246;-73
2021/05/17 03:49:47;;;;;;;2.00;1.80;;;;;;;7.20;100.00;99513.31;5020038;28;20210;-73
2021/05/17 03:52:13;;;;;;;1.97;1.80;;;;;;;7.27;100.00;99509.63;5024834;28;20628;-71
2021/05/17 03:54:39;;;;;;;2.03;1.60;;;;;;;7.28;100.00;99508.75;5017844;28;20609;-72
2021/05/17 03:57:06;;;;;;;1.70;1.60;;;;;;;7.37;100.00;99515.41;5010321;28;20246;-71
2021/05/17 03:59:34;;;;;;;3.33;1.83;;;;;;;7.46;100.00;99514.25;5035500;28;20196;-72
2021/05/17 04:01:59;;;;;;;2.00;1.90;;;;;;;7.52;100.00;99517.50;5024194;28;20230;-73
2021/05/17 04:04:27;;;;;;;2.27;1.60;;;;;;;7.57;100.00;99520.81;5021386;28;20205;-72
2021/05/17 04:07:00;;;;;;;2.20;1.90;;;;;;;7.67;100.00;99513.59;5025395;28;20226;-73
2021/05/17 04:15:11;;;;;;;2.53;2.00;;;;;;;7.81;100.00;99507.09;4962607;28;20206;-73
2021/05/17 04:17:37;;;;;;;3.17;2.00;;;;;;;7.87;100.00;99512.94;4983532;28;20669;-73
2021/05/17 04:20:04;;;;;;;4.43;1.97;;;;;;;7.91;100.00;99505.91;4995209;28;20726;-73
2021/05/17 04:22:30;;;;;;;2.13;1.90;;;;;;;7.92;100.00;99505.00;5026558;28;20204;-72
2021/05/17 04:24:56;;;;;;;2.53;1.90;;;;;;;8.00;100.00;99496.97;5019728;28;20287;-72
2021/05/17 04:27:22;;;;;;;2.00;1.90;;;;;;;8.02;100.00;99501.22;5025918;28;20294;-71
2021/05/17 04:29:48;;;;;;;2.37;1.90;;;;;;;8.09;100.00;99492.31;5021528;28;20600;-72
2021/05/17 04:32:15;;;;;;;2.10;1.90;;;;;;;8.13;100.00;99498.25;5028129;28;20196;-72
2021/05/17 04:34:41;;;;;;;3.13;1.80;;;;;;;8.26;100.00;99493.47;5007239;28;20213;-73
2021/05/17 04:37:07;;;;;;;2.40;2.10;;;;;;;8.35;100.00;99490.56;5026617;28;20218;-72
2021/05/17 04:39:33;;;;;;;2.47;1.67;;;;;;;8.48;100.00;99494.47;5024680;28;20852;-73
2021/05/17 04:41:59;;;;;;;3.17;1.93;;;;;;;8.62;100.00;99499.16;5016992;28;20696;-73
2021/05/17 04:44:26;;;;;;;3.60;2.00;;;;;;;8.73;100.00;99503.97;4986419;28;20292;-72
2021/05/17 04:46:52;;;;;;;4.10;1.90;;;;;;;8.82;100.00;99503.63;5000197;28;20218;-72
2021/05/17 04:49:19;;;;;;;1.63;1.53;;;;;;;8.85;100.00;99503.53;5004050;28;20900;-73
2021/05/17 04:51:45;;;;;;;3.53;2.10;;;;;;;8.97;100.00;99504.81;4992466;28;20213;-73
2021/05/17 04:54:11;;;;;;;1.73;1.63;;;;;;;9.01;100.00;99505.56;5004559;28;20831;-73
2021/05/17 04:56:37;;;;;;;5.50;2.00;;;;;;;8.97;100.00;99506.56;5004915;28;20285;-72
2021/05/17 04:59:03;;;;;;;2.17;1.80;;;;;;;8.99;100.00;99515.16;4986831;28;20228;-72
2021/05/17 05:01:30;;;;;;;1.73;1.63;;;;;;;9.04;100.00;99518.41;4980305;28;20221;-72
2021/05/17 05:03:56;;;;;;;2.43;1.80;;;;;;;9.07;100.00;99516.56;5001524;28;20220;-73
2021/05/17 05:06:22;;;;;;;2.13;1.43;;;;;;;9.16;100.00;99520.56;4991937;28;20289;-73
2021/05/17 05:08:48;;;;;;;5.03;1.93;;;;;;;9.22;100.00;99519.50;4997136;28;20225;-73
2021/05/17 05:11:14;;;;;;;1.93;1.70;;;;;;;9.29;100.00;99523.56;4975859;28;20215;-73
2021/05/17 05:13:41;;;;;;;3.30;1.57;;;;;;;9.31;100.00;99528.72;4987532;28;20203;-73
2021/05/17 05:16:07;;;;;;;2.00;1.40;;;;;;;9.38;100.00;99535.38;4995159;28;20213;-73
2021/05/17 05:18:32;;;;;;;3.37;1.73;;;;;;;9.49;100.00;99533.19;5001664;28;20197;-73
2021/05/17 05:20:58;;;;;;;1.63;1.40;;;;;;;9.53;100.00;99541.72;4971096;28;20283;-73
2021/05/17 05:23:25;;;;;;;4.27;1.43;;;;;;;9.58;100.00;99540.63;4995550;28;20609;-72
2021/05/17 05:28:46;;;;;;;2.60;1.50;;;;;;;9.71;100.00;99546.22;5012250;28;20616;-73
2021/05/17 05:31:15;;;;;;;1.40;1.30;;;;;;;9.79;100.00;99551.09;4963301;28;20244;-73
2021/05/17 05:33:41;;;;;;;2.40;1.20;;;;;;;9.79;100.00;99548.50;5002276;28;20612;-73
2021/05/17 05:36:07;;;;;;;1.33;1.23;;;;;;;9.84;100.00;99541.34;4998874;28;20213;-73
2021/05/17 05:38:35;;;;;;;2.70;1.27;;;;;;;9.86;100.00;99555.16;4995686;28;20224;-71
2021/05/17 05:41:01;;;;;;;1.20;1.10;;;;;;;9.98;100.00;99551.22;4985539;28;21110;-71
2021/05/17 05:43:27;;;;;;;1.30;1.20;;;;;;;10.02;100.00;99558.81;5018749;28;20224;-73
2021/05/17 05:45:53;;;;;;;1.13;1.07;;;;;;;10.12;100.00;99555.88;5022384;28;21143;-71
2021/05/17 05:48:19;;;;;;;2.60;1.33;;;;;;;10.13;100.00;99553.19;5026398;28;20225;-72
2021/05/17 05:50:46;;;;;;;1.93;1.30;;;;;;;10.13;100.00;99562.75;5024703;28;20226;-72
2021/05/17 05:53:12;;;;;;;1.50;1.27;;;;;;;10.24;100.00;99565.78;5025517;28;20296;-73
2021/05/17 05:55:39;;;;;;;1.13;0.97;;;;;;;10.27;100.00;99570.00;5004275;28;20774;-74
2021/05/17 05:58:05;;;;;;;2.97;1.00;;;;;;;10.32;100.00;99568.09;5024349;28;20197;-72
2021/05/17 06:00:31;;;;;;;1.07;1.00;;;;;;;10.38;100.00;99576.50;5026609;28;20314;-71
2021/05/17 06:02:58;;;;;;;1.47;1.00;;;;;;;10.43;100.00;99571.09;5027327;28;20208;-70
2021/05/17 06:05:24;;;;;;;1.50;1.20;;;;;;;10.51;100.00;99565.56;5024470;28;20303;-73
2021/05/17 06:07:50;;;;;;;1.43;1.10;;;;;;;10.51;100.00;99563.78;5024319;28;20222;-73
2021/05/17 06:10:17;;;;;;;2.70;1.10;;;;;;;10.63;100.00;99569.41;5025860;28;20239;-73
2021/05/17 06:12:46;;;;;;;1.40;1.17;;;;;;;10.75;100.00;99568.88;5010139;28;20199;-73
2021/05/17 06:15:13;;;;;;;2.00;1.10;;;;;;;10.89;100.00;99560.44;5008187;28;20203;-71
2021/05/17 06:17:40;;;;;;;2.10;1.13;;;;;;;11.02;100.00;99564.19;5003531;28;20195;-73
2021/05/17 06:20:08;;;;;;;1.30;1.00;;;;;;;11.15;99.61;99567.94;5010349;28;20602;-72
2021/05/17 06:22:37;;;;;;;3.67;1.20;;;;;;;11.34;98.83;99567.09;5005984;28;20682;-72
2021/05/17 06:25:05;;;;;;;1.13;1.00;;;;;;;11.63;97.43;99557.91;5021661;28;20548;-70
2021/05/17 06:27:32;;;;;;;2.70;1.30;;;;;;;11.74;97.08;99562.63;5016655;28;20208;-73
2021/05/17 06:29:59;;;;;;;2.03;1.10;;;;;;;11.78;94.91;99568.53;5006075;28;20208;-73
2021/05/17 06:32:26;;;;;;;1.40;1.00;;;;;;;11.85;96.40;99562.09;5022708;28;20204;-73
2021/05/17 06:34:52;;;;;;;1.00;0.80;;;;;;;11.90;94.97;99563.59;5006470;28;20215;-73
2021/05/17 06:37:18;;;;;;;2.67;1.00;;;;;;;11.98;95.70;99567.59;5006542;28;20298;-71
2021/05/17 06:39:44;;;;;;;1.97;1.00;;;;;;;12.06;93.32;99570.69;5004286;28;20204;-73
2021/05/17 06:42:11;;;;;;;1.20;0.70;;;;;;;12.09;91.82;99563.53;5009260;28;20315;-73
2021/05/17 06:44:38;;;;;;;1.93;1.30;;;;;;;12.23;93.04;99567.25;5022650;28;20206;-73
2021/05/17 06:47:06;;;;;;;1.33;0.90;;;;;;;12.21;91.21;99561.25;5018022;28;20216;-71
2021/05/17 06:49:33;;;;;;;1.40;0.90;;;;;;;12.16;90.74;99560.66;5006942;28;20204;-73
2021/05/17 06:51:59;;;;;;;1.57;0.93;;;;;;;12.24;91.42;99564.56;5023793;28;20247;-73
2021/05/17 06:54:28;;;;;;;1.50;0.90;;;;;;;12.27;90.32;99572.22;4983964;28;20765;-72
2021/05/17 06:57:00;;;;;;;1.67;0.97;;;;;;;12.28;88.74;99570.47;5011299;28;20698;-72
2021/05/17 06:59:27;;;;;;;0.63;0.60;;;;;;;12.36;90.30;99573.53;5020243;28;20205;-73
2021/05/17 07:01:55;;;;;;;0.77;0.73;;;;;;;12.41;89.69;99568.94;5025444;28;20344;-73
2021/05/17 07:04:22;;;;;;;2.27;0.83;;;;;;;12.43;90.49;99569.69;5001398;28;20210;-73
2021/05/17 07:06:53;;;;;;;1.63;1.00;;;;;;;12.68;91.54;99578.91;5010194;28;20211;-73
2021/05/17 07:12:09;;;;;;;1.87;1.10;;;;;;;13.24;89.79;99574.22;5004376;28;20231;-71
2021/05/17 07:14:35;;;;;;;0.80;0.80;;;;;;;13.41;87.13;99571.56;5017986;28;20435;-72
2021/05/17 07:17:01;;;;;;;1.63;0.60;;;;;;;13.36;85.71;99576.22;5020491;28;20591;-71
2021/05/17 07:19:28;;;;;;;1.60;1.00;;;;;;;13.51;86.39;99574.56;5015448;28;20688;-71
2021/05/17 07:24:38;;;;;;;0.67;0.60;;;;;;;13.67;85.02;99566.69;5006336;28;20211;-73
2021/05/17 07:27:05;;;;;;;0.90;0.60;;;;;;;13.72;82.65;99572.50;5019448;28;20739;-74
2021/05/17 07:29:33;;;;;;;1.13;0.60;;;;;;;13.66;82.03;99567.59;5015184;28;20214;-73
2021/05/17 07:31:59;;;;;;;0.93;0.70;;;;;;;13.90;83.29;99570.63;5018455;28;20219;-72
2021/05/17 07:34:25;;;;;;;1.03;0.63;;;;;;;13.88;81.59;99575.13;5001485;28;20210;-73
2021/05/17 07:36:54;;;;;;;0.97;0.70;;;;;;;14.21;83.54;99581.97;5010805;28;20588;-73
2021/05/17 07:39:20;;;;;;;1.43;0.73;;;;;;;14.26;82.15;99579.09;5018935;28;20235;-71
2021/05/17 07:41:46;;;;;;;2.37;1.67;;;;;;;13.90;81.32;99594.22;4992044;28;20235;-73
2021/05/17 07:44:12;;;;;;;1.43;1.03;;;;;;;13.82;82.71;99593.78;5020026;28;20275;-74
2021/05/17 07:46:38;;;;;;;0.73;0.50;;;;;;;13.87;82.92;99604.84;5026143;28;22002;-73
2021/05/17 07:49:10;;;;;;;1.23;0.50;;;;;;;13.82;80.97;99610.38;5022631;28;20219;-74
2021/05/17 07:51:37;;;;;;;0.57;0.57;;;;;;;13.94;83.02;99606.19;5021262;28;20246;-70
2021/05/17 07:54:05;;;;;;;2.83;0.77;;;;;;;14.11;80.41;99607.88;5016747;28;20203;-73
2021/05/17 07:56:31;;;;;;;2.37;0.70;;;;;;;14.18;80.07;99611.84;5023832;28;20206;-73
2021/05/17 07:58:58;;;;;;;3.20;0.70;;;;;;;14.28;80.03;99612.16;5019062;28;20595;-73
2021/05/17 08:01:24;;;;;;;1.73;0.83;;;;;;;14.25;79.50;99612.34;5015752;28;20306;-72
2021/05/17 08:03:50;;;;;;;1.20;0.80;;;;;;;14.20;78.20;99617.84;5025749;28;20307;-73
2021/05/17 08:06:17;;;;;;;0.50;0.50;;;;;;;14.05;78.95;99615.25;5027263;28;20211;-74
2021/05/17 08:08:43;;;;;;;1.40;0.90;;;;;;;14.00;80.39;99607.63;5007049;28;20265;-73
2021/05/17 08:11:10;;;;;;;1.00;0.80;;;;;;;13.94;80.14;99603.59;5026922;28;20800;-73
2021/05/17 08:13:38;;;;;;;1.90;0.80;;;;;;;13.68;79.70;99612.06;5017856;28;20611;-72
2021/05/17 08:16:04;;;;;;;0.73;0.63;;;;;;;13.64;81.06;99611.38;5023791;28;20252;-73
2021/05/17 08:18:32;;;;;;;2.13;0.70;;;;;;;13.62;82.47;99613.25;5025083;28;20226;-72
2021/05/17 08:20:58;;;;;;;1.00;0.80;;;;;;;13.56;81.91;99606.56;5021047;28;20245;-73
2021/05/17 08:23:24;;;;;;;1.27;0.90;;;;;;;13.81;80.75;99607.84;5019007;28;20205;-73
2021/05/17 08:25:50;;;;;;;2.20;1.00;;;;;;;14.11;81.19;99607.88;5022820;28;20668;-72
2021/05/17 08:28:17;;;;;;;2.83;0.90;;;;;;;14.34;80.75;99606.56;5021583;28;20298;-73
2021/05/17 08:30:44;;;;;;;1.10;0.67;;;;;;;14.54;79.62;99615.03;5023425;28;20233;-73
2021/05/17 08:33:11;;;;;;;1.47;0.90;;;;;;;14.69;81.51;99611.56;5023281;28;20204;-73
2021/05/17 08:35:37;;;;;;;3.07;0.90;;;;;;;14.81;77.48;99623.09;5015959;28;20221;-71
2021/05/17 08:38:03;;;;;;;0.83;0.80;;;;;;;15.00;76.96;99621.97;5023414;28;20579;-72
2021/05/17 08:40:29;;;;;;;1.80;0.90;;;;;;;15.27;76.69;99628.19;5023978;28;20238;-73
2021/05/17 08:42:55;;;;;;;1.70;0.87;;;;;;;15.54;76.64;99622.16;5005883;28;20202;-72
2021/05/17 08:45:22;;;;;;;2.03;0.90;;;;;;;15.87;76.72;99623.63;5028221;28;20291;-74
2021/05/17 08:47:48;;;;;;;0.97;0.83;;;;;;;16.09;75.73;99633.59;5021645;28;20213;-74
2021/05/17 08:50:14;;;;;;;1.43;0.80;;;;;;;15.86;71.93;99632.44;5025791;28;20288;-73
2021/05/17 08:52:42;;;;;;;1.13;0.60;;;;;;;15.76;70.68;99644.47;5003580;28;20208;-73
2021/05/17 08:55:10;;;;;;;1.60;0.60;;;;;;;15.98;70.22;99642.16;5008906;28;20214;-73
2021/05/17 08:57:36;;;;;;;0.60;0.60;;;;;;;16.15;71.04;99643.72;5024757;28;20212;-72
2021/05/17 09:00:04;;;;;;;1.97;0.77;;;;;;;15.90;69.07;99653.19;5023279;28;20231;-71
2021/05/17 09:02:31;;;;;;;0.60;0.60;;;;;;;15.81;69.95;99640.63;5023221;28;20200;-72
2021/05/17 09:05:07;;;;;;;0.67;0.50;;;;;;;15.74;68.53;99646.34;5022868;28;20212;-74
2021/05/17 09:07:34;;;;;;;0.50;0.50;;;;;;;15.79;68.85;99653.00;5022209;28;20261;-74
2021/05/17 09:10:13;;;;;;;0.70;0.50;;;;;;;16.01;65.86;99651.66;5022040;28;20203;-74
2021/05/17 09:12:54;;;;;;;0.57;0.53;;;;;;;16.02;66.61;99648.94;5026735;28;20200;-73
2021/05/17 09:15:27;;;;;;;0.50;0.50;;;;;;;15.84;65.26;99653.56;5019379;28;20204;-73
2021/05/17 09:17:58;;;;;;;0.80;0.60;;;;;;;15.95;65.23;99642.34;5027194;28;20192;-74
2021/05/17 09:20:27;;;;;;;0.50;0.50;;;;;;;15.80;65.79;99646.00;4991141;28;20338;-72
2021/05/17 09:23:05;;;;;;;0.67;0.50;;;;;;;15.76;67.42;99647.09;5010189;28;20665;-73
2021/05/17 09:25:31;;;;;;;0.60;0.60;;;;;;;16.00;66.34;99652.59;5020669;28;20274;-74
2021/05/17 09:28:01;;;;;;;7.10;3.60;;;;;;;16.34;67.13;99645.13;5015699;28;20219;-73
2021/05/17 09:30:44;;;;;;;1.33;0.80;;;;;;;16.53;65.58;99650.03;5005295;28;20224;-72
2021/05/17 09:33:14;;;;;;;0.63;0.63;;;;;;;16.76;65.99;99643.22;5026643;28;20208;-73
2021/05/17 09:35:43;;;;;;;1.70;0.80;;;;;;;16.70;63.82;99654.19;5023872;28;20203;-72
2021/05/17 09:38:18;;;;;;;0.97;0.67;;;;;;;16.32;63.10;99645.22;5024439;28;20209;-73
2021/05/17 09:40:45;;;;;;;0.50;0.50;;;;;;;16.09;66.52;99657.25;5018522;28;20237;-74
2021/05/17 09:43:13;;;;;;;0.40;0.40;;;;;;;15.82;64.16;99663.34;5019388;28;20199;-73
2021/05/17 09:45:41;;;;;;;0.70;0.30;;;;;;;15.93;65.28;99664.44;5005028;28;20211;-74
2021/05/17 09:48:11;;;;;;;0.40;0.40;;;;;;;16.01;65.15;99664.81;5022905;28;20286;-72
2021/05/17 09:50:58;;;;;;;0.30;0.30;;;;;;;16.03;65.43;99655.03;5025765;28;20218;-72
2021/05/17 09:53:26;;;;;;;0.70;0.50;;;;;;;16.27;65.36;99656.06;5022260;28;20197;-74
2021/05/17 09:55:52;;;;;;;0.43;0.40;;;;;;;16.76;66.31;99654.63;5021356;28;20227;-74
2021/05/17 09:58:32;;;;;;;0.80;0.50;;;;;;;17.28;64.63;99647.59;5023118;28;20234;-73
2021/05/17 10:01:25;;;;;;;0.23;0.23;;;;;;;17.72;63.50;99656.78;5022510;28;20223;-74
2021/05/17 10:03:53;;;;;;;1.07;0.40;;;;;;;17.72;59.43;99655.97;5015972;28;20330;-73
2021/05/17 10:06:22;;;;;;;0.23;0.20;;;;;;;17.87;61.22;99652.28;5009200;28;20204;-73
2021/05/17 10:08:49;;;;;;;0.60;0.20;;;;;;;18.08;60.85;99649.88;5016662;28;20220;-71
2021/05/17 10:11:16;;;;;;;0.50;0.40;;;;;;;18.29;59.11;99630.75;5007348;28;20220;-73
2021/05/17 10:13:43;;;;;;;3.80;0.40;;;;;;;18.24;58.12;99641.69;5006102;28;22240;-73
2021/05/17 10:16:11;;;;;;;0.67;0.40;;;;;;;17.32;58.83;99654.31;5028146;28;20191;-72
2021/05/17 10:18:38;;;;;;;0.30;0.30;;;;;;;16.97;59.40;99648.88;5018572;28;20191;-71
2021/05/17 10:21:07;;;;;;;1.03;0.50;;;;;;;16.72;58.37;99660.19;5023128;28;20258;-73
2021/05/17 10:23:36;;;;;;;0.53;0.47;;;;;;;16.64;61.76;99650.19;5004801;28;20201;-73
2021/05/17 10:26:12;;;;;;;0.47;0.40;;;;;;;16.59;60.17;99650.47;5011252;28;20200;-73
2021/05/17 10:28:41;;;;;;;0.57;0.43;;;;;;;16.75;61.00;99650.28;5024052;28;20709;-73
2021/05/17 10:31:10;;;;;;;0.40;0.40;;;;;;;16.79;61.21;99643.03;5003690;28;20267;-71
2021/05/17 10:33:37;;;;;;;0.50;0.47;;;;;;;16.87;62.14;99643.41;5024412;28;20195;-73
2021/05/17 10:36:06;;;;;;;0.50;0.50;;;;;;;17.05;63.57;99637.81;5008531;28;20226;-72
2021/05/17 10:38:39;;;;;;;0.50;0.50;;;;;;;17.21;58.05;99639.28;5019317;28;20282;-73
2021/05/17 10:41:35;;;;;;;0.60;0.37;;;;;;;17.21;58.16;99644.53;5022390;28;20223;-73
2021/05/17 10:44:09;;;;;;;1.90;0.50;;;;;;;16.98;60.26;99642.66;5006911;28;20207;-73
2021/05/17 10:46:39;;;;;;;0.50;0.50;;;;;;;16.69;60.36;99642.78;5022457;28;20214;-73
2021/05/17 10:49:19;;;;;;;0.73;0.57;;;;;;;16.61;61.09;99645.94;5031232;28;20222;-73
2021/05/17 10:51:45;;;;;;;2.83;0.67;;;;;;;16.64;61.26;99644.91;5017687;28;20226;-73
2021/05/17 10:54:23;;;;;;;0.50;0.50;;;;;;;16.84;56.04;99648.88;5023431;28;20203;-70
2021/05/17 10:56:54;;;;;;;0.40;0.40;;;;;;;17.13;61.63;99638.13;5004557;28;20311;-72
2021/05/17 11:02:11;;;;;;;0.60;0.50;;;;;;;16.82;55.43;99646.28;5022485;28;20307;-73
2021/05/17 11:04:38;;;;;;;0.53;0.40;;;;;;;16.73;56.53;99646.09;5002015;28;20192;-73
2021/05/17 11:07:26;;;;;;;0.50;0.50;;;;;;;16.99;57.06;99639.94;5003501;28;20192;-74
2021/05/17 11:10:00;;;;;;;1.17;0.50;;;;;;;17.22;55.54;99637.50;5017693;28;20696;-71
2021/05/17 11:13:02;;;;;;;0.50;0.40;;;;;;;17.73;57.76;99634.78;5019295;28;20203;-72
2021/05/17 11:15:43;;;;;;;2.07;0.30;;;;;;;17.62;55.73;99639.13;5022371;28;20387;-73
2021/05/17 11:18:35;;;;;;;0.40;0.40;;;;;;;17.28;55.89;99644.97;5005104;28;20756;-73
2021/05/17 11:21:13;;;;;;;1.33;0.47;;;;;;;17.03;58.55;99630.03;5019449;28;20831;-73
2021/05/17 11:24:01;;;;;;;0.40;0.40;;;;;;;16.94;58.18;99634.13;5022738;28;20436;-69
2021/05/17 11:26:59;;;;;;;1.90;0.70;;;;;;;17.35;56.62;99629.56;5017112;28;20570;-73
2021/05/17 11:29:51;;;;;;;1.00;0.60;;;;;;;17.74;55.86;99631.16;5016795;28;20212;-72
2021/05/17 11:32:17;;;;;;;0.67;0.40;;;;;;;18.00;56.57;99636.41;5020242;28;20248;-72
2021/05/17 11:35:00;;;;;;;0.50;0.40;;;;;;;18.01;54.83;99645.13;5019475;28;20732;-72
2021/05/17 11:37:27;;;;;;;0.53;0.40;;;;;;;18.11;53.14;99648.78;5019066;28;20196;-73
2021/05/17 11:39:53;;;;;;;0.70;0.53;;;;;;;18.23;56.04;99650.53;5003097;28;20250;-73
2021/05/17 11:42:20;;;;;;;1.73;0.50;;;;;;;18.26;50.79;99665.31;5021382;28;20203;-72
2021/05/17 11:44:54;;;;;;;1.27;0.43;;;;;;;18.60;55.29;99646.97;5000735;28;20664;-71
2021/05/17 11:47:22;;;;;;;0.93;0.50;;;;;;;18.64;52.75;99651.88;5023489;28;20696;-72
2021/05/17 11:49:49;;;;;;;0.53;0.40;;;;;;;18.66;55.42;99651.78;4984532;28;20204;-72
2021/05/17 11:52:20;;;;;;;1.30;0.67;;;;;;;18.65;52.95;99660.66;5021134;28;20200;-73
2021/05/17 11:54:50;;;;;;;0.57;0.40;;;;;;;18.60;49.26;99660.16;5005041;28;20200;-73
2021/05/17 11:57:17;;;;;;;1.83;0.50;;;;;;;18.86;50.81;99651.13;5012968;28;20191;-72
2021/05/17 11:59:44;;;;;;;1.83;0.37;;;;;;;19.00;53.01;99649.25;5015950;28;20257;-72